Time;durP1;ratioP1;P1;durP2;ratioP2;P2;SDS_P1;SDS_P2;PMS_P1;PMS_P2;Temp;Humidity;BMP_temperature;BMP_pressure;BME280_temperature;BME280_humidity;BME280_pressure;Samples;Min_cycle;Max_cycle;Signal;HPM_P1;HPM_P2
2022/02/07 00:00:40;;;;;;;3.90;1.52;;;7.20;97.10;;;;;;5024972;28;20124;-61
2022/02/07 00:05:38;;;;;;;3.28;1.30;;;7.20;97.30;;;;;;5043270;28;20041;-62
2022/02/07 00:08:06;;;;;;;4.22;1.40;;;7.20;97.50;;;;;;5040152;28;20091;-62
2022/02/07 00:10:32;;;;;;;2.80;1.23;;;7.10;97.50;;;;;;5042297;28;20450;-63
2022/02/07 00:12:59;;;;;;;4.32;1.60;;;7.10;97.60;;;;;;5039716;28;20121;-61
2022/02/07 00:15:24;;;;;;;5.10;1.55;;;7.10;97.80;;;;;;5043202;28;20040;-62
2022/02/07 00:17:50;;;;;;;3.55;1.25;;;7.00;97.80;;;;;;5038603;28;20021;-62
2022/02/07 00:20:21;;;;;;;1.95;0.95;;;6.90;97.90;;;;;;5053193;28;20536;-63
2022/02/07 00:22:48;;;;;;;3.03;1.48;;;6.90;97.80;;;;;;5046767;28;20029;-62
2022/02/07 00:25:14;;;;;;;0.95;0.57;;;6.80;97.70;;;;;;5040130;28;20044;-61
2022/02/07 00:27:40;;;;;;;1.90;1.48;;;6.80;97.60;;;;;;5033564;28;20104;-61
2022/02/07 00:30:09;;;;;;;2.30;0.90;;;6.70;97.50;;;;;;5033317;28;20121;-62
2022/02/07 00:32:35;;;;;;;1.58;0.82;;;6.60;97.50;;;;;;5033288;28;20048;-62
2022/02/07 00:35:01;;;;;;;1.55;0.88;;;6.60;97.50;;;;;;5046316;28;20102;-62
2022/02/07 00:37:29;;;;;;;2.25;0.70;;;6.50;97.40;;;;;;5050344;28;20658;-61
2022/02/07 00:40:04;;;;;;;3.45;1.00;;;6.50;97.30;;;;;;5033262;28;20100;-61
2022/02/07 00:42:34;;;;;;;1.13;0.70;;;6.40;97.20;;;;;;5033145;28;20049;-62
2022/02/07 00:45:03;;;;;;;4.35;1.20;;;6.40;97.20;;;;;;5052821;28;20052;-61
2022/02/07 00:47:28;;;;;;;2.10;0.90;;;6.30;97.20;;;;;;5034727;28;20089;-62
2022/02/07 00:49:56;;;;;;;0.90;0.70;;;6.30;97.20;;;;;;5052772;28;20025;-62
2022/02/07 00:52:24;;;;;;;2.60;0.95;;;6.30;97.30;;;;;;5050709;28;20384;-62
2022/02/07 00:54:50;;;;;;;1.95;0.75;;;6.20;97.20;;;;;;5034640;28;20028;-62
2022/02/07 00:57:16;;;;;;;0.32;0.32;;;6.20;97.20;;;;;;5036885;28;20029;-62
2022/02/07 00:59:41;;;;;;;2.70;0.68;;;6.20;96.90;;;;;;5048849;28;20029;-62
2022/02/07 01:02:07;;;;;;;2.38;0.70;;;6.10;97.00;;;;;;5014671;28;20061;-62
2022/02/07 01:04:32;;;;;;;1.23;0.82;;;6.00;97.00;;;;;;5046482;28;20045;-62
2022/02/07 01:06:58;;;;;;;1.13;1.00;;;6.00;97.00;;;;;;5069586;28;20024;-62
2022/02/07 01:09:29;;;;;;;1.35;0.80;;;6.00;96.90;;;;;;5050680;28;20383;-62
2022/02/07 01:12:09;;;;;;;4.38;1.40;;;6.00;97.00;;;;;;5032394;28;20040;-62
2022/02/07 01:14:55;;;;;;;1.48;0.80;;;5.90;96.80;;;;;;5050334;28;20054;-62
2022/02/07 01:20:52;;;;;;;4.55;1.20;;;5.90;97.00;;;;;;5036745;28;20029;-62
2022/02/07 01:23:38;;;;;;;2.72;1.05;;;5.90;96.90;;;;;;5035848;28;20061;-62
2022/02/07 01:53:36;;;;;;;4.45;1.35;;;5.80;96.60;;;;;;5044096;28;20027;-62
2022/02/07 01:56:05;;;;;;;2.40;1.23;;;5.70;96.70;;;;;;5051717;28;20411;-62
2022/02/07 01:58:30;;;;;;;3.15;1.10;;;5.70;96.90;;;;;;5049356;28;20383;-63
2022/02/07 02:00:56;;;;;;;4.03;1.58;;;5.80;96.90;;;;;;5042420;28;20116;-62
2022/02/07 02:03:21;;;;;;;6.57;1.23;;;5.80;97.00;;;;;;5040923;28;20068;-62
2022/02/07 02:05:51;;;;;;;2.25;1.15;;;5.80;96.90;;;;;;5041288;28;20481;-62
2022/02/07 02:08:17;;;;;;;3.63;1.60;;;5.70;96.90;;;;;;5039663;28;20048;-62
2022/02/07 02:10:45;;;;;;;3.17;1.30;;;5.80;96.90;;;;;;5044398;28;20542;-62
2022/02/07 02:13:26;;;;;;;3.47;1.10;;;5.80;97.00;;;;;;5038562;28;20028;-62
2022/02/07 02:16:00;;;;;;;2.53;1.42;;;5.80;96.90;;;;;;5038199;28;20484;-62
2022/02/07 02:37:26;;;;;;;2.08;1.00;;;5.60;96.90;;;;;;5049890;28;20036;-62
2022/02/07 02:45:30;;;;;;;2.95;1.55;;;5.60;96.80;;;;;;5050958;28;20048;-62
2022/02/07 02:47:59;;;;;;;3.85;1.25;;;5.60;96.80;;;;;;5044823;28;20032;-62
2022/02/07 02:50:32;;;;;;;2.97;1.15;;;5.70;96.80;;;;;;5035304;28;20029;-62
2022/02/07 02:53:05;;;;;;;3.55;1.55;;;5.60;96.70;;;;;;5049081;28;20040;-62
2022/02/07 02:55:32;;;;;;;4.15;1.50;;;5.60;96.80;;;;;;5049298;28;20032;-62
2022/02/07 02:57:57;;;;;;;4.85;1.02;;;5.60;96.80;;;;;;5021838;28;20037;-62
2022/02/07 03:00:24;;;;;;;4.88;1.40;;;5.60;96.90;;;;;;5059474;28;20064;-62
2022/02/07 03:02:49;;;;;;;6.10;1.63;;;5.60;96.90;;;;;;5050263;28;20021;-62
2022/02/07 03:05:16;;;;;;;4.13;1.40;;;5.70;96.90;;;;;;5048949;28;20139;-62
2022/02/07 03:07:42;;;;;;;5.47;1.20;;;5.70;96.90;;;;;;5045163;28;20022;-62
2022/02/07 03:10:08;;;;;;;2.97;1.13;;;5.60;96.70;;;;;;5033464;28;20033;-62
2022/02/07 03:12:44;;;;;;;6.47;2.10;;;5.60;96.80;;;;;;5043902;28;20377;-62
2022/02/07 03:18:13;;;;;;;2.85;1.08;;;5.60;96.80;;;;;;4956554;28;20035;-62
2022/02/07 03:20:39;;;;;;;4.95;1.15;;;5.60;96.80;;;;;;4968921;28;20042;-62
2022/02/07 03:23:05;;;;;;;4.70;1.25;;;5.60;96.90;;;;;;4997559;28;20091;-63
2022/02/07 03:25:33;;;;;;;3.10;1.67;;;5.70;96.90;;;;;;5035999;28;20061;-62
2022/02/07 03:27:58;;;;;;;6.20;1.63;;;5.60;96.90;;;;;;5031344;28;20427;-62
2022/02/07 03:30:23;;;;;;;8.93;1.48;;;5.60;96.90;;;;;;5034651;28;20029;-62
2022/02/07 03:32:49;;;;;;;3.60;1.70;;;5.60;96.90;;;;;;5032771;28;20109;-62
2022/02/07 03:35:16;;;;;;;6.30;1.42;;;5.60;97.00;;;;;;5034065;28;20025;-62
2022/02/07 03:37:41;;;;;;;6.15;1.50;;;5.60;97.00;;;;;;5037948;28;20030;-62
2022/02/07 03:40:07;;;;;;;3.25;1.17;;;5.60;97.00;;;;;;5035515;28;20036;-62
2022/02/07 03:42:33;;;;;;;2.83;1.38;;;5.60;97.00;;;;;;5039347;28;20064;-62
2022/02/07 03:44:58;;;;;;;3.97;1.55;;;5.60;97.00;;;;;;5034877;28;20041;-61
2022/02/07 03:47:24;;;;;;;3.92;1.55;;;5.60;97.00;;;;;;5041034;28;20488;-62
2022/02/07 03:49:49;;;;;;;5.57;1.30;;;5.60;97.00;;;;;;5039760;28;20024;-62
2022/02/07 03:52:15;;;;;;;3.78;1.48;;;5.70;97.10;;;;;;5053423;28;20028;-62
2022/02/07 03:54:40;;;;;;;6.97;1.40;;;5.70;97.10;;;;;;5054282;28;20017;-62
2022/02/07 03:57:06;;;;;;;1.80;1.30;;;5.70;97.10;;;;;;5034760;28;20119;-62
2022/02/07 03:59:31;;;;;;;6.10;1.20;;;5.70;97.10;;;;;;5034235;28;20030;-62
2022/02/07 04:01:56;;;;;;;2.38;1.20;;;5.70;97.10;;;;;;5051437;28;20479;-62
2022/02/07 04:04:22;;;;;;;5.38;1.55;;;5.80;97.10;;;;;;5049443;28;20041;-62
2022/02/07 04:06:48;;;;;;;5.60;1.65;;;5.80;97.20;;;;;;5048592;28;20448;-62
2022/02/07 04:09:18;;;;;;;2.90;1.58;;;5.70;97.20;;;;;;5047154;28;20025;-62
2022/02/07 04:11:50;;;;;;;4.20;1.50;;;5.70;97.30;;;;;;5049419;28;20035;-62
2022/02/07 04:14:21;;;;;;;2.92;1.33;;;5.70;97.40;;;;;;5052158;28;20021;-62
2022/02/07 04:16:47;;;;;;;7.03;1.45;;;5.70;97.40;;;;;;5033368;28;20030;-62
2022/02/07 04:19:17;;;;;;;3.20;1.40;;;5.70;97.40;;;;;;5033676;28;20040;-62
2022/02/07 04:21:44;;;;;;;5.28;1.33;;;5.70;97.60;;;;;;5051790;28;20029;-62
2022/02/07 04:24:10;;;;;;;4.75;1.70;;;5.70;97.60;;;;;;5053525;28;20029;-62
2022/02/07 04:26:36;;;;;;;3.92;1.50;;;5.60;97.60;;;;;;5051669;28;20028;-62
2022/02/07 04:29:02;;;;;;;5.85;2.00;;;5.70;97.70;;;;;;5053730;28;20021;-62
2022/02/07 04:31:27;;;;;;;6.53;1.70;;;5.60;97.70;;;;;;5050022;28;20029;-62
2022/02/07 04:33:53;;;;;;;4.70;1.42;;;5.60;97.70;;;;;;5051201;28;20147;-62
2022/02/07 04:36:18;;;;;;;7.10;1.77;;;5.60;97.70;;;;;;5041412;28;20033;-61
2022/02/07 04:38:44;;;;;;;5.30;1.50;;;5.60;97.90;;;;;;5033153;28;20072;-62
2022/02/07 04:41:10;;;;;;;4.40;1.63;;;5.60;97.90;;;;;;5044046;28;20033;-62
2022/02/07 04:43:39;;;;;;;4.32;1.40;;;5.50;98.00;;;;;;5049376;28;20029;-63
2022/02/07 04:46:24;;;;;;;3.72;1.70;;;5.50;98.00;;;;;;5033474;28;20116;-62
2022/02/07 04:49:10;;;;;;;;;;;5.50;98.00;;;;;;5040824;28;20044;-62
2022/02/07 04:51:53;;;;;;;;;;;5.60;97.90;;;;;;5045802;28;20359;-62
2022/02/07 04:54:43;;;;;;;4.68;1.90;;;5.50;97.90;;;;;;5032553;28;20354;-62
2022/02/07 05:13:38;;;;;;;7.50;1.67;;;5.50;98.00;;;;;;4991982;28;20072;-62
2022/02/07 05:16:17;;;;;;;4.97;1.70;;;5.50;97.90;;;;;;5047107;28;20043;-62
2022/02/07 05:18:43;;;;;;;5.17;1.50;;;5.50;97.90;;;;;;5047651;28;20060;-61
2022/02/07 05:21:09;;;;;;;3.65;1.80;;;5.50;97.90;;;;;;5042797;28;20032;-61
2022/02/07 05:23:35;;;;;;;6.70;1.67;;;5.50;97.90;;;;;;5049287;28;20412;-62
2022/02/07 05:26:00;;;;;;;3.97;1.75;;;5.50;97.90;;;;;;5036551;28;20033;-62
2022/02/07 05:28:26;;;;;;;5.15;1.67;;;5.50;97.90;;;;;;5032484;28;20108;-62
2022/02/07 05:30:51;;;;;;;3.47;1.75;;;5.50;97.90;;;;;;5050511;28;20045;-62
2022/02/07 05:33:17;;;;;;;2.30;1.38;;;5.50;97.90;;;;;;5049546;28;20047;-62
2022/02/07 05:35:42;;;;;;;5.10;1.45;;;5.50;97.80;;;;;;5041476;28;20072;-62
2022/02/07 05:38:09;;;;;;;3.13;1.38;;;5.50;97.90;;;;;;5032243;28;20033;-62
2022/02/07 05:40:53;;;;;;;7.65;1.95;;;5.60;97.90;;;;;;5038351;28;20037;-62
2022/02/07 05:43:19;;;;;;;6.05;1.88;;;5.60;97.90;;;;;;5052191;28;20063;-62
2022/02/07 05:45:45;;;;;;;4.55;1.20;;;5.60;97.80;;;;;;5049260;28;20082;-62
2022/02/07 05:48:10;;;;;;;4.47;1.48;;;5.60;97.80;;;;;;5051109;28;20029;-63
2022/02/07 05:50:36;;;;;;;4.10;1.40;;;5.60;97.80;;;;;;5044166;28;20495;-62
2022/02/07 05:53:02;;;;;;;6.68;1.55;;;5.60;97.90;;;;;;5031530;28;20063;-62
2022/02/07 05:55:28;;;;;;;4.25;1.60;;;5.60;97.80;;;;;;5031685;28;20040;-62
2022/02/07 05:57:53;;;;;;;5.55;1.60;;;5.60;97.70;;;;;;5031763;28;20390;-62
2022/02/07 06:00:19;;;;;;;6.35;1.90;;;5.60;97.70;;;;;;5032165;28;20029;-63
2022/02/07 06:02:46;;;;;;;8.52;2.08;;;5.50;97.70;;;;;;5031573;28;20052;-63
2022/02/07 06:05:11;;;;;;;6.35;2.38;;;5.60;97.70;;;;;;5032569;28;20037;-62
2022/02/07 06:07:37;;;;;;;7.05;1.80;;;5.60;97.70;;;;;;5031822;28;20033;-63
2022/02/07 06:10:04;;;;;;;7.25;1.75;;;5.60;97.60;;;;;;5032732;28;20035;-62
2022/02/07 06:12:48;;;;;;;4.82;2.10;;;5.60;97.60;;;;;;5031119;28;20021;-62
2022/02/07 06:15:17;;;;;;;3.28;1.42;;;5.70;97.50;;;;;;5033926;28;20381;-62
2022/02/07 06:17:43;;;;;;;2.95;1.40;;;5.70;97.50;;;;;;5050573;28;20021;-62
2022/02/07 06:20:09;;;;;;;6.78;1.90;;;5.70;97.50;;;;;;5049270;28;20091;-62
2022/02/07 06:22:35;;;;;;;5.85;1.70;;;5.80;97.50;;;;;;5033810;28;20029;-62
2022/02/07 06:25:03;;;;;;;3.30;2.13;;;5.80;97.40;;;;;;5049713;28;20045;-62
2022/02/07 06:27:28;;;;;;;4.80;1.65;;;5.80;97.40;;;;;;5034633;28;20481;-64
2022/02/07 06:29:54;;;;;;;5.95;2.28;;;5.80;97.30;;;;;;5031782;28;20063;-61
2022/02/07 06:32:19;;;;;;;6.20;2.13;;;5.80;97.20;;;;;;5016740;28;20032;-62
2022/02/07 06:34:45;;;;;;;5.03;1.75;;;5.90;97.20;;;;;;5031012;28;20033;-62
2022/02/07 06:37:10;;;;;;;5.70;1.92;;;5.80;97.20;;;;;;5038452;28;20026;-62
2022/02/07 06:39:36;;;;;;;15.93;3.45;;;5.80;97.10;;;;;;5034248;28;20044;-61
2022/02/07 06:42:01;;;;;;;6.55;1.65;;;5.80;97.10;;;;;;5039241;28;20104;-62
2022/02/07 06:44:27;;;;;;;5.88;1.95;;;5.80;97.00;;;;;;5046916;28;20037;-63
2022/02/07 06:46:53;;;;;;;6.45;2.42;;;5.90;97.10;;;;;;5049655;28;20021;-63
2022/02/07 06:49:18;;;;;;;6.72;1.90;;;5.80;97.10;;;;;;5050577;28;20025;-63
2022/02/07 06:51:44;;;;;;;5.38;2.08;;;5.90;97.10;;;;;;5048591;28;20135;-63
2022/02/07 06:54:10;;;;;;;5.47;1.85;;;5.90;97.10;;;;;;5040253;28;20057;-63
2022/02/07 06:56:35;;;;;;;5.85;1.77;;;5.90;97.20;;;;;;5045918;28;20029;-63
2022/02/07 06:59:01;;;;;;;5.00;2.20;;;5.90;97.10;;;;;;5051221;28;20045;-63
2022/02/07 07:01:26;;;;;;;7.68;1.55;;;5.90;97.10;;;;;;5050082;28;20048;-63
2022/02/07 07:04:10;;;;;;;3.85;1.70;;;5.90;97.00;;;;;;5041176;28;20072;-62
2022/02/07 07:06:38;;;;;;;9.80;2.17;;;5.90;97.10;;;;;;5044072;28;20492;-62
2022/02/07 07:09:03;;;;;;;6.97;2.22;;;5.90;97.20;;;;;;5031627;28;20040;-62
2022/02/07 07:11:29;;;;;;;6.68;1.95;;;5.90;97.20;;;;;;5038151;28;20396;-62
2022/02/07 07:14:00;;;;;;;8.90;2.05;;;6.00;97.20;;;;;;5042376;28;20086;-62
2022/02/07 07:16:39;;;;;;;8.00;1.92;;;6.00;97.20;;;;;;5046034;28;20036;-61
2022/02/07 07:19:05;;;;;;;7.72;1.75;;;6.10;97.10;;;;;;5040102;28;20048;-61
2022/02/07 07:21:32;;;;;;;6.63;2.03;;;6.10;97.10;;;;;;5047297;28;20484;-62
2022/02/07 07:23:58;;;;;;;8.52;2.00;;;6.10;97.00;;;;;;5051830;28;20039;-61
2022/02/07 07:26:25;;;;;;;4.88;1.83;;;6.10;97.00;;;;;;5022550;28;20034;-63
2022/02/07 07:28:53;;;;;;;6.72;2.40;;;6.20;97.00;;;;;;5042402;28;20025;-61
2022/02/07 07:31:19;;;;;;;6.30;2.10;;;6.20;97.00;;;;;;5046468;28;20030;-61
2022/02/07 07:33:50;;;;;;;6.70;2.38;;;6.30;96.90;;;;;;5040182;28;20476;-61
2022/02/07 07:36:16;;;;;;;7.07;2.20;;;6.20;96.90;;;;;;5028742;28;20035;-61
2022/02/07 07:38:42;;;;;;;7.60;2.33;;;6.30;96.80;;;;;;5038867;28;20025;-61
2022/02/07 07:41:07;;;;;;;4.25;1.52;;;6.30;96.70;;;;;;5035944;28;20038;-61
2022/02/07 07:43:33;;;;;;;4.43;2.42;;;6.30;96.70;;;;;;5051961;28;20421;-61
2022/02/07 07:46:02;;;;;;;7.40;2.08;;;6.30;96.40;;;;;;5040951;28;20036;-61
2022/02/07 07:48:29;;;;;;;5.45;2.45;;;6.30;96.60;;;;;;5033822;28;20030;-61
2022/02/07 07:51:05;;;;;;;7.68;2.25;;;6.30;96.60;;;;;;5045835;28;20156;-61
2022/02/07 07:54:11;;;;;;;4.57;2.15;;;6.40;96.60;;;;;;5037433;28;20606;-61
2022/02/07 08:02:07;;;;;;;6.18;1.90;;;6.50;96.70;;;;;;5051101;28;20340;-61
2022/02/07 08:04:34;;;;;;;7.80;2.10;;;6.60;96.70;;;;;;5042537;28;20630;-61
2022/02/07 08:07:07;;;;;;;5.80;1.75;;;6.60;96.60;;;;;;5031991;28;20034;-62
2022/02/07 08:12:03;;;;;;;7.43;2.03;;;6.60;96.50;;;;;;5039874;28;20029;-62
2022/02/07 08:14:33;;;;;;;7.60;2.60;;;6.60;96.30;;;;;;5044984;28;20114;-62
2022/02/07 08:16:59;;;;;;;7.00;3.03;;;6.50;96.30;;;;;;5037822;28;20068;-62
2022/02/07 08:19:26;;;;;;;8.38;2.08;;;6.60;96.60;;;;;;5040060;28;20576;-62
2022/02/07 08:21:51;;;;;;;5.90;2.35;;;6.60;96.60;;;;;;5045785;28;20495;-62
2022/02/07 08:24:17;;;;;;;8.05;2.38;;;6.60;96.40;;;;;;5045215;28;20041;-62
2022/02/07 08:26:42;;;;;;;5.78;1.95;;;6.70;96.50;;;;;;5038615;28;20112;-63
2022/02/07 08:29:08;;;;;;;10.50;2.83;;;6.70;96.50;;;;;;5042963;28;20040;-62
2022/02/07 08:31:34;;;;;;;5.22;2.95;;;6.70;96.40;;;;;;5039350;28;20495;-62
2022/02/07 08:33:59;;;;;;;7.40;2.05;;;6.70;96.40;;;;;;5041821;28;20460;-62
2022/02/07 08:36:25;;;;;;;5.55;1.98;;;6.80;96.30;;;;;;5041401;28;20032;-62
2022/02/07 08:38:50;;;;;;;5.38;2.33;;;6.80;96.20;;;;;;5039648;28;20026;-60
2022/02/07 08:41:16;;;;;;;5.75;2.15;;;6.80;96.30;;;;;;5048999;28;20055;-62
2022/02/07 08:43:41;;;;;;;8.43;2.03;;;6.70;96.20;;;;;;5037962;28;20021;-62
2022/02/07 08:46:08;;;;;;;6.68;3.40;;;6.70;96.00;;;;;;5033730;28;20033;-62
2022/02/07 08:48:33;;;;;;;8.40;2.53;;;6.60;96.20;;;;;;5049610;28;20032;-63
2022/02/07 08:50:59;;;;;;;10.82;2.58;;;6.70;96.30;;;;;;5040830;28;20021;-62
2022/02/07 08:53:27;;;;;;;7.10;2.13;;;6.70;96.30;;;;;;5040794;28;20038;-61
2022/02/07 08:55:53;;;;;;;7.22;2.30;;;6.80;96.30;;;;;;5043796;28;20017;-61
2022/02/07 08:58:23;;;;;;;7.90;2.08;;;6.90;96.20;;;;;;5032676;28;20637;-61
2022/02/07 09:01:00;;;;;;;7.13;2.28;;;6.90;96.20;;;;;;5037633;28;20074;-61
2022/02/07 09:11:15;;;;;;;9.93;2.67;;;7.00;96.10;;;;;;5043449;28;20040;-62
2022/02/07 09:13:43;;;;;;;7.90;2.20;;;7.00;96.10;;;;;;5048919;28;20024;-63
2022/02/07 09:18:39;;;;;;;12.32;2.85;;;7.10;95.90;;;;;;5032733;28;20032;-63
2022/02/07 09:21:07;;;;;;;6.15;2.50;;;7.20;95.90;;;;;;5036051;28;20472;-63
2022/02/07 09:23:34;;;;;;;8.52;1.90;;;7.20;95.70;;;;;;5017398;28;20079;-63
2022/02/07 09:25:59;;;;;;;12.98;2.50;;;7.20;95.70;;;;;;5045611;28;20443;-63
2022/02/07 09:28:25;;;;;;;14.77;4.72;;;7.30;95.60;;;;;;5050409;28;20025;-62
2022/02/07 09:30:53;;;;;;;4.80;1.70;;;7.30;95.60;;;;;;5042910;28;20033;-62
2022/02/07 09:33:19;;;;;;;5.20;1.75;;;7.30;95.70;;;;;;5044829;28;20104;-62
2022/02/07 09:35:45;;;;;;;7.63;2.65;;;7.40;95.60;;;;;;5040677;28;20100;-62
2022/02/07 09:38:10;;;;;;;7.60;2.22;;;7.50;95.50;;;;;;5035354;28;20132;-60
2022/02/07 09:40:37;;;;;;;6.93;2.60;;;7.50;95.40;;;;;;5042523;28;20079;-62
2022/02/07 09:43:05;;;;;;;7.35;2.30;;;7.50;95.40;;;;;;5043616;28;20026;-61
2022/02/07 09:45:40;;;;;;;7.40;2.60;;;7.50;95.40;;;;;;5040540;28;20044;-61
2022/02/07 09:48:09;;;;;;;10.07;2.65;;;7.60;95.40;;;;;;5051005;28;20059;-61
2022/02/07 09:50:35;;;;;;;9.43;2.50;;;7.60;95.20;;;;;;5044958;28;20117;-60
2022/02/07 09:53:02;;;;;;;9.18;2.22;;;7.60;95.00;;;;;;5039615;28;20028;-61
2022/02/07 09:55:28;;;;;;;12.63;3.58;;;7.60;94.80;;;;;;5050298;28;20029;-61
2022/02/07 09:57:54;;;;;;;12.02;2.28;;;7.60;95.00;;;;;;5040999;28;20388;-61
2022/02/07 10:00:24;;;;;;;15.13;2.63;;;7.70;94.90;;;;;;5044458;28;20031;-61
2022/02/07 10:03:24;;;;;;;7.18;2.33;;;7.60;94.60;;;;;;5031422;28;20037;-61
2022/02/07 10:05:54;;;;;;;12.77;2.78;;;7.60;94.80;;;;;;5037988;28;20061;-61
2022/02/07 10:11:22;;;;;;;10.45;2.33;;;7.70;94.80;;;;;;5049605;28;20059;-62
2022/02/07 10:14:06;;;;;;;6.15;1.95;;;7.70;94.80;;;;;;5037159;28;20086;-61
2022/02/07 10:19:28;;;;;;;12.02;2.45;;;7.90;94.80;;;;;;5046444;28;20033;-61
2022/02/07 10:22:14;;;;;;;10.55;3.22;;;7.90;94.30;;;;;;5045841;28;20472;-61
2022/02/07 10:37:00;;;;;;;8.70;3.15;;;8.10;94.10;;;;;;5035700;28;20029;-61
2022/02/07 10:44:46;;;;;;;17.85;2.92;;;8.20;93.50;;;;;;5037370;28;20048;-61
2022/02/07 10:47:19;;;;;;;16.23;3.10;;;8.20;93.20;;;;;;5040670;28;20040;-61
2022/02/07 10:50:08;;;;;;;9.98;3.10;;;8.20;93.30;;;;;;5042928;28;20064;-61
2022/02/07 10:52:49;;;;;;;15.07;3.50;;;8.30;93.00;;;;;;5041810;28;20025;-61
2022/02/07 10:55:26;;;;;;;6.93;2.58;;;8.20;93.00;;;;;;5040088;28;20041;-61
2022/02/07 10:57:54;;;;;;;12.10;2.90;;;8.30;92.80;;;;;;5041796;28;20029;-61
2022/02/07 11:00:25;;;;;;;8.93;3.05;;;8.30;92.70;;;;;;5047096;28;20029;-61
2022/02/07 11:05:37;;;;;;;10.10;2.63;;;8.40;92.00;;;;;;5044269;28;20078;-61
2022/02/07 11:08:20;;;;;;;9.70;2.97;;;8.40;92.30;;;;;;5047633;28;20040;-62
2022/02/07 11:16:19;;;;;;;7.72;2.65;;;8.40;91.60;;;;;;5039387;28;20638;-62
2022/02/07 11:19:05;;;;;;;9.00;2.63;;;8.50;92.10;;;;;;5041374;28;20029;-61
2022/02/07 11:24:35;;;;;;;10.10;3.22;;;8.40;91.60;;;;;;5036423;28;20044;-61
2022/02/07 11:27:28;;;;;;;13.10;2.90;;;8.50;90.90;;;;;;5044060;28;20086;-62
2022/02/07 11:29:55;;;;;;;13.57;2.33;;;8.50;90.90;;;;;;5039584;28;20041;-61
2022/02/07 11:32:39;;;;;;;16.08;3.63;;;8.50;91.20;;;;;;5041531;28;20017;-61
2022/02/07 11:35:12;;;;;;;9.20;2.30;;;8.50;90.80;;;;;;5044351;28;20071;-62
2022/02/07 11:37:39;;;;;;;16.67;2.53;;;8.50;90.80;;;;;;5038923;28;20577;-62
2022/02/07 11:40:28;;;;;;;27.38;4.40;;;8.50;90.80;;;;;;5041390;28;20086;-62
2022/02/07 11:43:19;;;;;;;11.38;3.05;;;8.50;90.20;;;;;;5045485;28;20025;-62
2022/02/07 11:45:59;;;;;;;13.95;4.82;;;8.50;90.60;;;;;;5041789;28;20040;-62
2022/02/07 11:48:51;;;;;;;9.75;2.85;;;8.70;90.70;;;;;;5043471;28;20029;-62
2022/02/07 11:51:20;;;;;;;18.83;3.83;;;8.70;90.20;;;;;;5040339;28;20033;-62
2022/02/07 11:53:49;;;;;;;13.60;3.70;;;8.70;89.90;;;;;;5039234;28;20029;-62
2022/02/07 11:56:35;;;;;;;13.38;3.80;;;8.80;90.00;;;;;;5041915;28;20479;-62
2022/02/07 11:59:14;;;;;;;14.80;4.22;;;8.70;90.10;;;;;;5040125;28;20052;-63
2022/02/07 12:02:00;;;;;;;16.80;3.75;;;8.70;90.00;;;;;;5042523;28;20027;-63
2022/02/07 12:04:31;;;;;;;12.50;4.00;;;8.70;88.50;;;;;;5037593;28;20136;-62
2022/02/07 12:07:23;;;;;;;14.68;4.32;;;8.60;89.20;;;;;;5041477;28;20037;-62
2022/02/07 12:10:01;;;;;;;13.75;3.38;;;8.60;88.70;;;;;;5034120;28;20040;-62
2022/02/07 12:15:27;;;;;;;12.23;3.30;;;8.40;87.70;;;;;;5043480;28;20040;-62
2022/02/07 12:17:57;;;;;;;11.18;3.05;;;8.30;88.90;;;;;;5040450;28;20513;-63
2022/02/07 12:20:34;;;;;;;9.68;3.03;;;8.30;90.10;;;;;;5033311;28;20033;-62
2022/02/07 12:23:10;;;;;;;12.95;3.38;;;8.20;90.50;;;;;;5036899;28;20147;-63
2022/02/07 12:25:42;;;;;;;13.50;3.08;;;8.20;90.70;;;;;;5041473;28;20040;-62
2022/02/07 12:28:14;;;;;;;19.15;4.35;;;8.20;90.90;;;;;;5032954;28;21836;-62
2022/02/07 12:30:48;;;;;;;15.73;3.20;;;8.10;90.70;;;;;;5026817;28;20484;-62
2022/02/07 12:33:17;;;;;;;13.57;3.45;;;8.20;90.60;;;;;;5025951;28;20140;-61
2022/02/07 12:35:44;;;;;;;12.55;3.22;;;8.30;90.50;;;;;;5027279;28;20033;-62
2022/02/07 12:38:12;;;;;;;18.88;3.78;;;8.30;90.20;;;;;;5031901;28;20033;-62
2022/02/07 12:40:38;;;;;;;13.20;3.22;;;8.30;89.70;;;;;;5044957;28;20388;-62
2022/02/07 12:43:05;;;;;;;14.32;3.60;;;8.30;88.70;;;;;;5039020;28;20029;-62
2022/02/07 12:45:30;;;;;;;13.32;4.13;;;8.20;87.70;;;;;;5048372;28;20049;-63
2022/02/07 12:48:02;;;;;;;12.63;3.85;;;8.30;88.00;;;;;;5045262;28;20389;-62
2022/02/07 12:50:28;;;;;;;16.73;3.90;;;8.30;88.00;;;;;;5046446;28;20033;-62
2022/02/07 12:52:57;;;;;;;14.27;3.85;;;8.30;88.60;;;;;;5046456;28;20023;-61
2022/02/07 12:55:23;;;;;;;12.73;2.72;;;8.40;88.90;;;;;;5034755;28;20484;-61
2022/02/07 12:57:49;;;;;;;12.20;3.33;;;8.40;87.90;;;;;;5031912;28;20036;-61
2022/02/07 13:00:18;;;;;;;9.95;2.97;;;8.40;88.10;;;;;;5032219;28;20064;-61
2022/02/07 13:02:46;;;;;;;13.38;3.40;;;8.50;88.00;;;;;;5030409;28;20717;-62
2022/02/07 13:05:13;;;;;;;11.10;3.45;;;8.60;87.50;;;;;;5031245;28;20033;-62
2022/02/07 13:07:44;;;;;;;11.95;3.92;;;8.50;85.80;;;;;;5030043;28;20033;-62
2022/02/07 13:10:17;;;;;;;16.80;3.83;;;8.60;86.80;;;;;;5028942;28;20037;-62
2022/02/07 13:13:15;;;;;;;11.75;4.10;;;8.50;84.40;;;;;;5014860;28;20029;-62
2022/02/07 13:15:41;;;;;;;16.20;3.78;;;8.50;84.40;;;;;;5028651;28;20078;-62
2022/02/07 13:18:16;;;;;;;11.57;3.17;;;8.40;83.50;;;;;;5029012;28;20033;-62
2022/02/07 13:20:44;;;;;;;;;;;8.40;84.60;;;;;;5031173;28;20415;-63
2022/02/07 13:23:19;;;;;;;11.07;4.28;;;8.50;83.80;;;;;;5033561;28;19919;-62
2022/02/07 13:25:52;;;;;;;9.52;3.15;;;8.50;85.20;;;;;;5030687;28;20037;-62
2022/02/07 13:28:21;;;;;;;14.32;3.10;;;8.50;81.70;;;;;;5028840;28;20076;-62
2022/02/07 13:30:49;;;;;;;12.38;3.90;;;8.40;83.50;;;;;;5028710;28;20060;-62
2022/02/07 13:33:15;;;;;;;11.45;3.15;;;8.40;84.40;;;;;;5029965;28;20033;-62
2022/02/07 13:35:45;;;;;;;13.73;3.88;;;8.40;85.50;;;;;;5030724;28;20043;-63
2022/02/07 13:38:14;;;;;;;16.77;3.38;;;8.40;84.40;;;;;;5028606;28;20028;-62
2022/02/07 13:40:45;;;;;;;15.73;4.15;;;8.30;83.90;;;;;;5030804;28;20040;-62
2022/02/07 13:43:17;;;;;;;15.32;4.25;;;8.30;84.20;;;;;;5031120;28;20028;-62
2022/02/07 13:45:43;;;;;;;9.85;3.72;;;8.30;83.30;;;;;;5017035;28;20046;-63
2022/02/07 13:48:09;;;;;;;12.57;3.08;;;8.30;82.30;;;;;;5030566;28;20074;-62
2022/02/07 13:50:36;;;;;;;12.98;3.75;;;8.30;82.30;;;;;;5029167;28;20617;-62
2022/02/07 13:53:06;;;;;;;10.93;3.80;;;8.30;82.20;;;;;;5029023;28;20029;-62
2022/02/07 13:55:37;;;;;;;12.73;3.28;;;8.30;82.10;;;;;;5029412;28;20029;-62
2022/02/07 13:58:32;;;;;;;12.40;3.95;;;8.30;82.70;;;;;;5030625;28;20392;-62
2022/02/07 14:01:14;;;;;;;16.65;4.05;;;8.20;82.20;;;;;;5028843;28;20036;-62
2022/02/07 14:03:46;;;;;;;12.40;3.97;;;8.10;83.40;;;;;;5028787;28;20187;-63
2022/02/07 14:06:12;;;;;;;10.85;2.90;;;8.00;84.70;;;;;;5030018;28;20072;-62
2022/02/07 14:08:51;;;;;;;14.10;3.60;;;7.90;86.00;;;;;;5030233;28;20397;-62
2022/02/07 14:11:27;;;;;;;11.50;3.25;;;7.80;86.50;;;;;;5029158;28;20025;-62
2022/02/07 14:14:01;;;;;;;10.98;2.80;;;7.80;86.90;;;;;;5029545;28;20033;-62
2022/02/07 14:16:26;;;;;;;13.80;2.92;;;7.80;87.20;;;;;;5035200;28;20021;-62
2022/02/07 14:18:53;;;;;;;9.68;3.67;;;7.80;87.20;;;;;;5029926;28;20126;-61
2022/02/07 14:21:21;;;;;;;7.78;2.90;;;7.70;87.50;;;;;;5030128;28;20069;-63
2022/02/07 14:23:48;;;;;;;7.93;2.97;;;7.70;87.70;;;;;;5030427;28;20029;-63
2022/02/07 14:26:17;;;;;;;9.60;2.63;;;7.70;87.60;;;;;;5030037;28;20425;-64
2022/02/07 14:28:50;;;;;;;12.00;3.47;;;7.80;87.70;;;;;;5028857;28;20025;-63
2022/02/07 14:31:17;;;;;;;13.80;3.13;;;7.70;87.90;;;;;;5030974;28;20084;-64
2022/02/07 14:33:42;;;;;;;18.88;3.50;;;7.80;88.20;;;;;;5027781;28;20025;-64
2022/02/07 14:36:08;;;;;;;9.80;2.67;;;7.70;88.60;;;;;;5029185;28;20044;-64
2022/02/07 14:38:34;;;;;;;13.52;3.95;;;7.60;89.50;;;;;;5029585;28;20460;-63
2022/02/07 14:41:01;;;;;;;8.00;2.67;;;7.50;90.00;;;;;;5029825;28;20039;-63
2022/02/07 14:43:31;;;;;;;8.88;3.28;;;7.40;90.30;;;;;;5028297;28;20505;-63
2022/02/07 14:46:22;;;;;;;8.20;2.67;;;7.30;90.60;;;;;;5030377;28;20045;-63
2022/02/07 14:48:46;;;;;;;17.45;4.20;;;7.20;90.70;;;;;;5028627;28;20027;-63
2022/02/07 14:51:12;;;;;;;14.30;4.22;;;7.30;90.80;;;;;;5031846;28;20029;-64
2022/02/07 14:53:38;;;;;;;17.35;4.13;;;7.30;90.80;;;;;;5027824;28;20032;-64
2022/02/07 14:56:05;;;;;;;12.23;3.58;;;7.30;90.90;;;;;;5029859;28;20057;-63
2022/02/07 14:58:31;;;;;;;11.95;3.08;;;7.30;90.80;;;;;;5026951;28;20043;-64
2022/02/07 15:00:57;;;;;;;8.55;3.40;;;7.20;90.90;;;;;;5028909;28;20029;-64
2022/02/07 15:03:24;;;;;;;11.77;3.42;;;7.20;90.90;;;;;;5023602;28;20463;-64
2022/02/07 15:05:53;;;;;;;11.52;4.95;;;7.20;91.00;;;;;;5028721;28;20168;-63
2022/02/07 15:08:20;;;;;;;13.43;3.30;;;7.20;91.00;;;;;;5028413;28;20079;-63
2022/02/07 15:10:46;;;;;;;11.95;3.40;;;7.20;91.00;;;;;;5029143;28;20098;-63
2022/02/07 15:13:11;;;;;;;20.00;4.65;;;7.20;90.90;;;;;;5026646;28;20750;-64
2022/02/07 15:15:37;;;;;;;8.23;2.60;;;7.20;90.80;;;;;;5032712;28;20036;-64
2022/02/07 15:18:07;;;;;;;10.32;2.58;;;7.30;90.80;;;;;;5029986;28;20059;-64
2022/02/07 15:20:37;;;;;;;12.13;2.97;;;7.30;90.90;;;;;;5028070;28;20590;-63